createdAt,value
2023-03-01T00:01:48.452Z,63.50
2023-03-01T00:04:30.589Z,63.50
2023-03-01T00:07:08.966Z,63.30
2023-03-01T00:09:42.314Z,63.10
2023-03-01T00:12:12.175Z,63.00
2023-03-01T00:14:42.564Z,63.30
2023-03-01T00:17:12.403Z,63.30
2023-03-01T00:19:45.194Z,63.30
2023-03-01T00:22:14.991Z,63.40
2023-03-01T00:24:56.720Z,63.60
2023-03-01T00:27:26.556Z,63.70
2023-03-01T00:30:06.926Z,64.10
2023-03-01T00:32:42.723Z,64.60
2023-03-01T00:35:12.493Z,64.40
2023-03-01T00:37:41.734Z,64.60
2023-03-01T00:40:12.491Z,64.60
2023-03-01T00:42:42.576Z,65.00
2023-03-01T00:45:16.927Z,65.30
2023-03-01T00:47:50.727Z,65.20
2023-03-01T00:50:21.571Z,65.30
2023-03-01T00:52:55.486Z,65.60
2023-03-01T00:55:34.034Z,65.50
2023-03-01T00:58:12.689Z,65.80
2023-03-01T01:00:42.421Z,65.50
2023-03-01T01:03:14.098Z,65.70
2023-03-01T01:05:41.550Z,65.60
2023-03-01T01:08:13.936Z,65.70
2023-03-01T01:10:49.932Z,65.80
2023-03-01T01:13:22.755Z,65.80
2023-03-01T01:16:05.320Z,65.90
2023-03-01T01:21:42.101Z,65.90
2023-03-01T01:24:11.139Z,65.90
2023-03-01T01:26:38.775Z,65.90
2023-03-01T01:29:16.693Z,66.00
2023-03-01T01:31:47.036Z,66.00
2023-03-01T01:34:21.326Z,65.80
2023-03-01T01:36:57.270Z,65.70
2023-03-01T01:39:24.846Z,65.90
2023-03-01T01:41:53.454Z,65.70
2023-03-01T01:44:27.236Z,65.80
2023-03-01T01:47:23.621Z,65.70
2023-03-01T01:50:05.857Z,65.80
2023-03-01T01:52:38.952Z,65.90
2023-03-01T01:55:18.175Z,65.90
2023-03-01T01:57:51.977Z,66.00
2023-03-01T02:00:30.014Z,66.00
2023-03-01T02:03:08.380Z,65.90
2023-03-01T02:06:11.217Z,66.00
2023-03-01T02:08:42.639Z,66.10
2023-03-01T02:12:53.817Z,66.10
2023-03-01T02:15:21.766Z,66.40
2023-03-01T02:17:49.402Z,66.60
2023-03-01T02:26:21.684Z,66.60
2023-03-01T02:28:48.984Z,66.50
2023-03-01T02:31:37.490Z,66.80
2023-03-01T02:38:25.180Z,66.90
2023-03-01T02:40:53.344Z,67.20
2023-03-01T02:43:24.309Z,67.00
2023-03-01T02:45:54.065Z,67.20
2023-03-01T02:48:56.396Z,67.30
2023-03-01T02:56:13.876Z,67.50
2023-03-01T02:59:08.431Z,67.90
2023-03-01T03:01:39.492Z,68.00
2023-03-01T03:04:14.852Z,68.00
2023-03-01T03:07:01.068Z,67.90
2023-03-01T03:14:17.544Z,68.10
2023-03-01T03:16:50.965Z,68.20
2023-03-01T03:19:21.278Z,68.20
2023-03-01T03:21:48.770Z,68.20
2023-03-01T03:24:18.604Z,68.20
2023-03-01T03:26:54.955Z,68.20
2023-03-01T03:31:20.715Z,68.20
2023-03-01T03:33:47.981Z,68.20
2023-03-01T03:36:47.441Z,68.20
2023-03-01T03:39:14.681Z,68.30
2023-03-01T03:41:41.769Z,68.50
2023-03-01T03:44:29.931Z,68.40
2023-03-01T03:46:58.488Z,68.40
2023-03-01T03:49:29.387Z,68.70
2023-03-01T03:52:21.814Z,68.60
2023-03-01T03:54:49.281Z,68.50
2023-03-01T03:57:23.271Z,68.60
2023-03-01T03:59:50.598Z,68.60
2023-03-01T04:02:23.435Z,68.60
2023-03-01T04:04:56.170Z,68.70
2023-03-01T04:07:46.820Z,68.80
2023-03-01T04:10:39.441Z,68.90
2023-03-01T04:13:14.095Z,69.10
2023-03-01T04:15:45.859Z,69.30
2023-03-01T04:18:17.930Z,69.50
2023-03-01T04:21:08.884Z,69.60
2023-03-01T04:23:36.287Z,69.80
2023-03-01T04:26:05.204Z,69.30
2023-03-01T04:28:50.885Z,69.20
2023-03-01T04:31:22.866Z,69.30
2023-03-01T04:33:56.203Z,69.50
2023-03-01T04:36:30.652Z,69.40
2023-03-01T04:38:58.886Z,69.50
2023-03-01T04:41:27.154Z,69.50
2023-03-01T04:44:04.245Z,69.70
2023-03-01T04:46:34.036Z,69.80
2023-03-01T04:49:01.425Z,69.80
2023-03-01T04:51:29.132Z,69.90
2023-03-01T04:54:01.505Z,70.10
2023-03-01T04:56:29.005Z,70.20
2023-03-01T04:58:58.984Z,70.40
2023-03-01T05:01:31.540Z,70.40
2023-03-01T05:04:03.938Z,70.60
2023-03-01T05:06:33.955Z,70.60
2023-03-01T05:09:01.362Z,70.60
2023-03-01T05:11:35.455Z,70.70
2023-03-01T05:14:04.954Z,70.80
2023-03-01T05:16:36.185Z,70.60
2023-03-01T05:19:23.845Z,70.60
2023-03-01T05:22:03.995Z,70.80
2023-03-01T05:24:34.651Z,71.00
2023-03-01T05:27:03.382Z,70.90
2023-03-01T05:29:35.886Z,71.00
2023-03-01T05:32:05.763Z,71.20
2023-03-01T05:34:40.602Z,71.20
2023-03-01T05:37:10.454Z,71.10
2023-03-01T05:39:37.734Z,71.10
2023-03-01T05:42:09.896Z,71.30
2023-03-01T05:44:40.164Z,71.30
2023-03-01T05:47:07.533Z,71.20
2023-03-01T05:49:37.731Z,71.20
2023-03-01T05:52:06.373Z,71.20
2023-03-01T05:54:36.466Z,71.20
2023-03-01T05:57:03.907Z,71.40
2023-03-01T05:59:31.256Z,71.30
2023-03-01T06:01:58.518Z,71.40
2023-03-01T06:04:25.823Z,71.60
2023-03-01T06:06:53.345Z,71.50
2023-03-01T06:09:20.552Z,71.40
2023-03-01T06:11:48.906Z,71.80
2023-03-01T06:14:18.594Z,72.10
2023-03-01T06:16:48.238Z,72.00
2023-03-01T06:19:15.486Z,72.00
2023-03-01T06:21:49.458Z,72.10
2023-03-01T06:24:18.326Z,72.20
2023-03-01T06:26:57.049Z,72.30
2023-03-01T06:29:24.437Z,72.20
2023-03-01T06:31:54.133Z,72.30
2023-03-01T06:34:22.806Z,72.30
2023-03-01T06:36:49.976Z,72.40
2023-03-01T06:39:18.752Z,72.50
2023-03-01T06:41:49.012Z,72.60
2023-03-01T06:44:16.391Z,72.70
2023-03-01T06:46:45.188Z,72.70
2023-03-01T06:49:18.849Z,72.70
2023-03-01T06:51:59.276Z,72.50
2023-03-01T06:54:29.317Z,72.50
2023-03-01T06:56:58.958Z,72.60
2023-03-01T06:59:32.324Z,72.50
2023-03-01T07:02:05.867Z,72.40
2023-03-01T07:04:42.898Z,72.50
2023-03-01T07:07:25.653Z,72.60
2023-03-01T07:10:02.442Z,72.60
2023-03-01T07:12:39.014Z,72.50
2023-03-01T07:15:16.218Z,72.10
2023-03-01T07:17:51.543Z,72.10
2023-03-01T07:20:27.001Z,72.10
2023-03-01T07:23:03.229Z,72.30
2023-03-01T07:25:33.269Z,72.30
2023-03-01T07:28:06.240Z,72.00
2023-03-01T07:30:50.300Z,71.90
2023-03-01T07:33:29.599Z,71.90
2023-03-01T07:36:32.370Z,71.60
2023-03-01T07:39:11.757Z,71.40
2023-03-01T07:41:49.558Z,71.50
2023-03-01T07:44:40.355Z,71.30
2023-03-01T07:47:10.860Z,71.40
2023-03-01T07:49:56.940Z,71.20
2023-03-01T07:52:27.775Z,71.60
2023-03-01T07:55:07.990Z,70.90
2023-03-01T08:01:36.059Z,70.00
2023-03-01T08:04:03.411Z,69.60
2023-03-01T08:06:30.923Z,69.40
2023-03-01T08:09:01.320Z,69.10
2023-03-01T08:11:34.845Z,68.80
2023-03-01T08:14:33.485Z,68.90
2023-03-01T08:17:15.469Z,69.00
2023-03-01T08:19:54.307Z,68.30
2023-03-01T08:22:21.856Z,68.00
2023-03-01T08:24:54.032Z,67.50
2023-03-01T08:27:30.036Z,68.10
2023-03-01T08:30:06.137Z,66.90
2023-03-01T08:32:42.912Z,66.70
2023-03-01T08:35:22.350Z,66.70
2023-03-01T08:37:54.510Z,66.30
2023-03-01T08:40:30.440Z,66.40
2023-03-01T08:43:13.209Z,66.20
2023-03-01T08:46:18.332Z,65.90
2023-03-01T08:49:01.167Z,65.20
2023-03-01T08:51:42.351Z,63.80
2023-03-01T08:54:26.147Z,64.50
2023-03-01T09:00:47.609Z,63.70
2023-03-01T09:03:17.206Z,62.70
2023-03-01T09:05:47.133Z,62.90
2023-03-01T09:08:30.234Z,62.50
2023-03-01T09:11:52.572Z,61.20
2023-03-01T09:14:15.960Z,62.40
2023-03-01T09:17:19.397Z,62.90
2023-03-01T09:19:57.297Z,61.40
2023-03-01T09:25:08.020Z,60.50
2023-03-01T09:27:52.092Z,61.80
2023-03-01T09:30:34.273Z,60.50
2023-03-01T09:33:30.640Z,60.90
2023-03-01T09:39:08.366Z,60.00
2023-03-01T09:42:03.506Z,60.10
2023-03-01T09:44:48.464Z,59.50
2023-03-01T09:47:42.524Z,60.50
2023-03-01T09:50:27.146Z,59.40
2023-03-01T09:53:30.392Z,59.80
2023-03-01T09:56:23.548Z,58.80
2023-03-01T09:59:23.339Z,58.20
2023-03-01T10:02:12.938Z,58.00
2023-03-01T10:04:54.241Z,58.40
2023-03-01T10:07:29.359Z,57.50
2023-03-01T10:09:56.544Z,58.00
2023-03-01T10:12:29.495Z,57.70
2023-03-01T10:15:45.479Z,57.50
2023-03-01T10:18:21.751Z,56.70
2023-03-01T10:21:09.485Z,58.10
2023-03-01T10:23:38.106Z,58.20
2023-03-01T10:26:17.255Z,56.50
2023-03-01T10:29:14.617Z,56.40
2023-03-01T10:31:52.188Z,55.50
2023-03-01T10:34:26.947Z,56.10
2023-03-01T10:37:03.454Z,55.50
2023-03-01T10:39:30.657Z,56.00
2023-03-01T10:42:03.342Z,56.00
2023-03-01T10:44:45.464Z,55.10
2023-03-01T10:47:27.253Z,56.80
2023-03-01T10:50:07.323Z,55.30
2023-03-01T10:52:38.534Z,57.30
2023-03-01T10:55:17.572Z,56.80
2023-03-01T10:57:45.748Z,55.40
2023-03-01T11:00:27.969Z,55.70
2023-03-01T11:03:14.133Z,56.10
2023-03-01T11:06:21.877Z,54.70
2023-03-01T11:08:54.620Z,54.60
2023-03-01T11:11:36.209Z,54.40
2023-03-01T11:14:27.285Z,53.70
2023-03-01T11:17:19.323Z,55.50
2023-03-01T11:20:18.062Z,53.60
2023-03-01T11:23:10.813Z,54.60
2023-03-01T11:25:47.669Z,52.90
2023-03-01T11:28:23.316Z,54.70
2023-03-01T11:31:13.417Z,53.10
2023-03-01T11:34:00.918Z,53.10
2023-03-01T11:36:54.914Z,52.80
2023-03-01T11:39:29.389Z,53.30
2023-03-01T11:43:08.636Z,53.40
2023-03-01T11:46:21.741Z,53.40
2023-03-01T11:50:01.965Z,52.60
2023-03-01T11:53:31.227Z,52.60
2023-03-01T11:56:40.521Z,52.60
2023-03-01T11:59:47.446Z,51.40
2023-03-01T12:02:23.529Z,52.10
2023-03-01T12:06:04.613Z,51.80
2023-03-01T12:08:55.462Z,50.70
2023-03-01T12:11:56.368Z,50.70
2023-03-01T12:15:10.138Z,51.70
2023-03-01T12:18:03.475Z,51.80
2023-03-01T12:21:05.636Z,50.40
2023-03-01T12:23:44.575Z,50.00
2023-03-01T12:26:30.587Z,50.20
2023-03-01T12:29:28.824Z,50.40
2023-03-01T12:32:21.160Z,49.80
2023-03-01T12:35:35.303Z,51.00
2023-03-01T12:38:38.742Z,48.60
2023-03-01T12:41:46.489Z,50.00
2023-03-01T12:44:52.474Z,49.30
2023-03-01T12:48:02.915Z,48.70
2023-03-01T12:50:47.539Z,49.70
2023-03-01T12:53:58.290Z,49.20
2023-03-01T12:56:32.376Z,49.00
2023-03-01T12:59:40.809Z,49.20
2023-03-01T13:02:34.421Z,47.10
2023-03-01T13:05:35.386Z,47.90
2023-03-01T13:08:30.955Z,47.50
2023-03-01T13:11:07.957Z,46.20
2023-03-01T13:13:40.736Z,47.00
2023-03-01T13:16:38.251Z,45.80
2023-03-01T13:19:23.053Z,47.30
2023-03-01T13:21:55.130Z,46.90
2023-03-01T13:24:38.737Z,46.80
2023-03-01T13:27:09.190Z,46.90
2023-03-01T13:30:04.403Z,46.00
2023-03-01T13:32:43.465Z,46.90
2023-03-01T13:35:40.920Z,47.10
2023-03-01T13:38:46.768Z,46.10
2023-03-01T13:41:43.913Z,46.90
2023-03-01T13:44:39.672Z,46.60
2023-03-01T13:47:16.032Z,46.80
2023-03-01T13:49:58.533Z,45.50
2023-03-01T13:52:50.568Z,45.30
2023-03-01T13:55:25.930Z,44.80
2023-03-01T13:58:02.519Z,45.00
2023-03-01T14:00:45.632Z,47.10
2023-03-01T14:03:19.571Z,45.60
2023-03-01T14:06:19.744Z,45.10
2023-03-01T14:08:53.448Z,45.20
2023-03-01T14:12:22.356Z,45.50
2023-03-01T14:14:58.086Z,45.60
2023-03-01T14:17:52.585Z,45.70
2023-03-01T14:20:33.950Z,45.40
2023-03-01T14:23:11.406Z,44.50
2023-03-01T14:25:39.880Z,44.60
2023-03-01T14:28:20.103Z,44.60
2023-03-01T14:30:51.318Z,44.90
2023-03-01T14:33:28.518Z,46.20
2023-03-01T14:36:03.523Z,45.10
2023-03-01T14:38:43.828Z,45.30
2023-03-01T14:41:18.962Z,45.20
2023-03-01T14:43:59.794Z,44.70
2023-03-01T14:46:42.340Z,45.00
2023-03-01T14:49:23.624Z,44.90
2023-03-01T14:52:20.276Z,44.90
2023-03-01T14:54:55.718Z,45.40
2023-03-01T14:57:27.016Z,45.60
2023-03-01T14:59:58.575Z,45.50
2023-03-01T15:02:28.475Z,44.80
2023-03-01T15:05:08.501Z,45.20
2023-03-01T15:07:50.083Z,44.40
2023-03-01T15:10:33.817Z,43.30
2023-03-01T15:13:21.996Z,45.00
2023-03-01T15:15:51.614Z,44.40
2023-03-01T15:18:27.402Z,44.10
2023-03-01T15:20:55.364Z,45.00
2023-03-01T15:23:28.858Z,45.10
2023-03-01T15:25:58.030Z,44.50
2023-03-01T15:28:40.141Z,45.20
2023-03-01T15:31:32.910Z,44.60
2023-03-01T15:34:26.288Z,45.00
2023-03-01T15:36:58.130Z,45.40
2023-03-01T15:39:44.535Z,45.70
2023-03-01T15:42:38.375Z,46.00
2023-03-01T15:45:17.909Z,46.00
2023-03-01T15:47:58.022Z,45.30
2023-03-01T15:50:38.174Z,45.80
2023-03-01T15:53:13.695Z,45.20
2023-03-01T15:55:46.937Z,45.30
2023-03-01T15:58:24.482Z,46.60
2023-03-01T16:01:01.192Z,46.30
2023-03-01T16:03:34.487Z,46.20
2023-03-01T16:06:02.108Z,46.20
2023-03-01T16:08:29.457Z,45.30
2023-03-01T16:11:12.451Z,46.30
2023-03-01T16:13:42.747Z,46.40
2023-03-01T16:16:17.325Z,45.90
2023-03-01T16:18:47.705Z,45.60
2023-03-01T16:21:25.955Z,45.70
2023-03-01T16:23:59.774Z,46.70
2023-03-01T16:26:35.230Z,46.30
2023-03-01T16:29:16.252Z,46.60
2023-03-01T16:32:08.306Z,47.00
2023-03-01T16:34:42.712Z,46.80
2023-03-01T16:37:24.922Z,46.80
2023-03-01T16:43:26.931Z,46.90
2023-03-01T16:46:09.039Z,46.80
2023-03-01T16:48:38.782Z,46.60
2023-03-01T16:51:09.217Z,47.90
2023-03-01T16:53:37.450Z,47.70
2023-03-01T16:56:08.627Z,48.80
2023-03-01T16:58:37.700Z,47.90
2023-03-01T17:01:17.494Z,48.10
2023-03-01T17:03:47.309Z,47.70
2023-03-01T17:06:19.111Z,48.90
2023-03-01T17:08:47.814Z,48.30
2023-03-01T17:11:19.823Z,48.40
2023-03-01T17:13:49.011Z,48.20
2023-03-01T17:16:24.361Z,49.30
2023-03-01T17:18:54.961Z,48.90
2023-03-01T17:21:22.374Z,48.30
2023-03-01T17:23:50.474Z,48.40
2023-03-01T17:26:18.007Z,48.80
2023-03-01T17:28:47.197Z,49.20
2023-03-01T17:31:15.837Z,49.90
2023-03-01T17:33:43.298Z,49.90
2023-03-01T17:36:10.786Z,49.70
2023-03-01T17:38:38.685Z,50.00
2023-03-01T17:41:06.648Z,50.50
2023-03-01T17:43:35.285Z,51.10
2023-03-01T17:46:02.966Z,51.30
2023-03-01T17:48:30.955Z,51.60
2023-03-01T17:50:58.306Z,51.60
2023-03-01T17:53:26.358Z,51.80
2023-03-01T17:56:06.497Z,52.00
2023-03-01T17:58:40.564Z,52.00
2023-03-01T18:01:18.702Z,52.20
2023-03-01T18:03:47.701Z,52.80
2023-03-01T18:06:36.549Z,52.90
2023-03-01T18:09:05.588Z,52.50
2023-03-01T18:11:51.313Z,53.30
2023-03-01T18:14:18.662Z,52.60
2023-03-01T18:16:50.138Z,52.60
2023-03-01T18:19:22.265Z,53.00
2023-03-01T18:22:21.489Z,53.00
2023-03-01T18:24:55.627Z,53.00
2023-03-01T18:27:30.145Z,52.80
2023-03-01T18:30:12.726Z,53.30
2023-03-01T18:32:47.382Z,53.00
2023-03-01T18:35:19.045Z,53.20
2023-03-01T18:37:58.560Z,53.20
2023-03-01T18:40:46.565Z,53.00
2023-03-01T18:43:40.157Z,53.30
2023-03-01T18:47:04.722Z,53.20
2023-03-01T18:49:41.859Z,54.00
2023-03-01T18:52:28.888Z,54.00
2023-03-01T18:59:07.061Z,54.30
2023-03-01T19:00:58.920Z,54.40
2023-03-01T19:03:50.031Z,54.50
2023-03-01T19:06:31.461Z,55.30
2023-03-01T19:09:18.768Z,54.80
2023-03-01T19:12:16.550Z,55.00
2023-03-01T19:14:45.230Z,55.10
2023-03-01T19:17:22.128Z,54.80
2023-03-01T19:19:53.757Z,54.80
2023-03-01T19:22:24.477Z,55.00
2023-03-01T19:24:56.663Z,55.10
2023-03-01T19:27:40.667Z,55.30
2023-03-01T19:30:31.088Z,55.50
2023-03-01T19:33:03.181Z,55.50
2023-03-01T19:35:30.967Z,55.10
2023-03-01T19:38:05.086Z,55.10
2023-03-01T19:40:56.784Z,55.30
2023-03-01T19:43:25.335Z,55.40
2023-03-01T19:46:08.533Z,55.90
2023-03-01T19:48:40.507Z,55.90
2023-03-01T19:51:10.243Z,55.60
2023-03-01T19:53:54.250Z,55.60
2023-03-01T19:56:35.679Z,56.00
2023-03-01T19:59:10.210Z,56.20
2023-03-01T20:01:37.991Z,56.60
2023-03-01T20:04:05.726Z,57.00
2023-03-01T20:06:38.203Z,57.00
2023-03-01T20:09:27.644Z,57.20
2023-03-01T20:11:58.362Z,57.10
2023-03-01T20:14:35.430Z,57.10
2023-03-01T20:17:10.083Z,57.30
2023-03-01T20:19:37.609Z,57.30
2023-03-01T20:22:08.522Z,57.00
2023-03-01T20:24:35.874Z,57.10
2023-03-01T20:27:05.205Z,57.00
2023-03-01T20:29:32.654Z,57.30
2023-03-01T20:32:00.368Z,57.70
2023-03-01T20:34:27.722Z,57.40
2023-03-01T20:36:59.808Z,57.40
2023-03-01T20:39:30.171Z,57.50
2023-03-01T20:42:15.315Z,57.70
2023-03-01T20:44:46.507Z,57.50
2023-03-01T20:47:16.403Z,58.00
2023-03-01T20:49:43.839Z,57.80
2023-03-01T20:52:10.975Z,57.90
2023-03-01T20:54:39.481Z,57.80
2023-03-01T20:57:13.582Z,58.00
2023-03-01T20:59:48.454Z,57.80
2023-03-01T21:02:18.154Z,57.90
2023-03-01T21:04:49.804Z,58.00
2023-03-01T21:07:54.792Z,58.10
2023-03-01T21:11:06.390Z,58.60
2023-03-01T21:13:36.163Z,58.70
2023-03-01T21:16:11.748Z,59.30
2023-03-01T21:18:43.819Z,59.20
2023-03-01T21:21:26.627Z,59.10
2023-03-01T21:24:03.336Z,59.40
2023-03-01T21:26:35.485Z,59.70
2023-03-01T21:29:24.026Z,60.20
2023-03-01T21:32:04.434Z,60.10
2023-03-01T21:34:41.965Z,60.70
2023-03-01T21:37:28.173Z,60.60
2023-03-01T21:40:01.323Z,62.10
2023-03-01T21:42:38.730Z,61.70
2023-03-01T21:45:15.276Z,61.60
2023-03-01T21:47:55.323Z,61.70
2023-03-01T21:50:27.993Z,61.20
2023-03-01T21:53:29.001Z,60.80
2023-03-01T21:56:11.099Z,60.50
2023-03-01T21:58:43.560Z,60.40
2023-03-01T22:01:23.765Z,61.40
2023-03-01T22:04:05.572Z,61.10
2023-03-01T22:06:41.786Z,60.60
2023-03-01T22:09:25.116Z,61.50
2023-03-01T22:12:02.816Z,60.80
2023-03-01T22:14:36.019Z,61.20
2023-03-01T22:17:11.964Z,61.50
2023-03-01T22:19:49.125Z,60.90
2023-03-01T22:24:03.198Z,60.90
2023-03-01T22:25:18.362Z,61.10
2023-03-01T22:27:46.947Z,61.00
2023-03-01T22:30:19.337Z,61.00
2023-03-01T22:32:55.658Z,60.90
2023-03-01T22:35:23.020Z,61.20
2023-03-01T22:37:50.123Z,61.30
2023-03-01T22:40:17.407Z,62.30
2023-03-01T22:42:44.538Z,63.30
2023-03-01T22:45:12.392Z,62.40
2023-03-01T22:47:41.883Z,63.40
2023-03-01T22:50:13.733Z,63.40
2023-03-01T22:52:46.039Z,62.40
2023-03-01T22:55:17.646Z,62.30
2023-03-01T22:57:51.760Z,62.40
2023-03-01T23:00:20.886Z,62.20
2023-03-01T23:02:48.504Z,62.80
2023-03-01T23:05:15.926Z,62.50
2023-03-01T23:07:47.138Z,62.30
2023-03-01T23:10:15.936Z,62.20
2023-03-01T23:12:45.619Z,62.00
2023-03-01T23:15:13.098Z,62.00
2023-03-01T23:17:43.187Z,61.90
2023-03-01T23:20:14.477Z,62.80
2023-03-01T23:22:41.805Z,62.50
2023-03-01T23:25:13.162Z,62.90
2023-03-01T23:27:40.616Z,63.30
2023-03-01T23:30:08.910Z,63.00
2023-03-01T23:32:40.482Z,63.10
2023-03-01T23:35:10.675Z,63.00
2023-03-01T23:37:39.039Z,62.70
2023-03-01T23:40:07.082Z,62.70
2023-03-01T23:42:34.789Z,62.30
2023-03-01T23:45:01.849Z,62.40
2023-03-01T23:47:28.970Z,62.60
2023-03-01T23:49:57.503Z,62.80
2023-03-01T23:52:24.913Z,63.10
2023-03-01T23:54:52.068Z,62.90
2023-03-01T23:57:19.871Z,63.30
2023-03-01T23:59:47.006Z,63.20
